createdAt,value
2023-01-10T00:03:02.112Z,1.80705
2023-01-10T00:08:03.737Z,1.90518
2023-01-10T00:13:05.398Z,1.84166
2023-01-10T00:18:07.058Z,1.67272
2023-01-10T00:23:08.650Z,2.06206
2023-01-10T00:28:10.271Z,2.00712
2023-01-10T00:33:11.906Z,1.99473
2023-01-10T00:38:13.498Z,2.08651
2023-01-10T00:43:15.177Z,1.51552
2023-01-10T00:48:16.867Z,1.38786
2023-01-10T00:53:18.573Z,1.15889
2023-01-10T00:58:20.238Z,0.80322
2023-01-10T01:03:21.969Z,1.17064
2023-01-10T01:08:23.601Z,1.87183
2023-01-10T01:13:25.258Z,2.13827
2023-01-10T01:18:26.904Z,1.98838
2023-01-10T01:23:28.554Z,1.80895
2023-01-10T01:28:30.367Z,1.64096
2023-01-10T01:33:31.944Z,1.84166
2023-01-10T01:38:33.610Z,1.9906
2023-01-10T01:43:35.221Z,1.61143
2023-01-10T01:48:36.943Z,1.96806
2023-01-10T01:53:38.540Z,1.83563
2023-01-10T01:58:40.131Z,0.82767
2023-01-10T02:03:42.406Z,1.41327
2023-01-10T02:08:44.025Z,1.18525
2023-01-10T02:13:45.606Z,0.65428
2023-01-10T02:18:47.298Z,0.84101
2023-01-10T02:23:49.047Z,0.84387
2023-01-10T02:28:50.674Z,1.11475
2023-01-10T02:33:52.327Z,0.97185
2023-01-10T02:38:53.956Z,0.09728
2023-01-10T02:43:55.601Z,-0.01197
2023-01-10T02:48:57.254Z,0.26241
2023-01-10T02:53:58.883Z,0.39833
2023-01-10T02:59:00.638Z,1.10427
2023-01-10T03:04:02.426Z,1.24051
2023-01-10T03:09:04.075Z,0.92739
2023-01-10T03:14:05.716Z,0.57299
2023-01-10T03:19:07.329Z,0.36879
2023-01-10T03:24:08.924Z,-0.06119
2023-01-10T03:29:10.646Z,-0.24252
2023-01-10T03:34:12.243Z,-0.32222
2023-01-10T03:39:13.815Z,0.20144
2023-01-10T03:44:15.477Z,1.08268
2023-01-10T03:49:17.108Z,1.10046
2023-01-10T03:54:18.831Z,0.99217
2023-01-10T03:59:20.542Z,1.10745
2023-01-10T04:04:22.266Z,1.03187
2023-01-10T04:09:23.993Z,0.86737
2023-01-10T04:14:25.667Z,0.82481
2023-01-10T04:19:27.279Z,0.50439
2023-01-10T04:24:28.968Z,0.95184
2023-01-10T04:29:30.566Z,0.81084
2023-01-10T04:34:32.319Z,0.5371
2023-01-10T04:39:34.041Z,1.02615
2023-01-10T04:44:35.601Z,1.01853
2023-01-10T04:49:37.213Z,0.87753
2023-01-10T04:54:38.839Z,-0.12057
2023-01-10T04:59:40.499Z,-0.4664
2023-01-10T05:04:42.093Z,-0.64137
2023-01-10T05:09:43.739Z,0.2116
2023-01-10T05:14:45.385Z,0.15666
2023-01-10T05:19:47.012Z,0.73621
2023-01-10T05:24:48.685Z,1.00424
2023-01-10T05:29:50.368Z,0.83371
2023-01-10T05:34:51.976Z,0.76067
2023-01-10T05:39:53.804Z,0.77369
2023-01-10T05:44:55.496Z,0.9566
2023-01-10T05:49:57.073Z,0.61332
2023-01-10T05:54:58.859Z,0.61586
2023-01-10T06:00:00.624Z,0.80925
2023-01-10T06:05:02.561Z,0.75527
2023-01-10T06:10:04.241Z,0.12459
2023-01-10T06:15:05.854Z,0.16555
2023-01-10T06:25:12.815Z,-0.45973
2023-01-10T06:30:14.418Z,-0.67662
2023-01-10T06:35:16.443Z,-1.0434
2023-01-10T06:40:18.245Z,-0.7684
2023-01-10T06:45:19.969Z,-0.39336
2023-01-10T06:50:21.725Z,0.09537
2023-01-10T06:55:23.374Z,0.49804
2023-01-10T07:00:25.197Z,0.80068
2023-01-10T07:05:27.031Z,-0.63311
2023-01-10T07:10:28.903Z,-0.44702
2023-01-10T07:15:30.642Z,-0.53721
2023-01-10T07:20:32.305Z,-0.11327
2023-01-10T07:25:33.879Z,0.67715
2023-01-10T07:30:35.588Z,0.3021
2023-01-10T07:35:37.177Z,0.33958
2023-01-10T07:40:38.821Z,0.41897
2023-01-10T07:45:40.439Z,-0.74013
2023-01-10T07:50:42.076Z,-0.67948
2023-01-10T07:55:43.693Z,0.21573
2023-01-10T08:00:45.637Z,-0.3689
2023-01-10T08:05:47.302Z,-0.87033
2023-01-10T08:10:49.005Z,-0.87573
2023-01-10T08:15:50.880Z,-0.01927
2023-01-10T08:20:53.599Z,0.61745
2023-01-10T08:25:55.358Z,1.03981
2023-01-10T08:30:57.124Z,0.12713
2023-01-10T08:35:58.834Z,-0.64423
2023-01-10T08:41:01.319Z,-0.49815
2023-01-10T08:46:03.043Z,-0.16852
2023-01-10T08:51:06.149Z,0.1357
2023-01-10T08:56:08.156Z,0.49105
2023-01-10T09:01:23.612Z,0.73304
2023-01-10T09:06:25.626Z,0.96232
2023-01-10T09:11:27.743Z,0.79941
2023-01-10T09:16:34.349Z,0.59236
2023-01-10T09:21:36.031Z,0.15571
2023-01-10T09:26:37.603Z,0.09061
2023-01-10T09:31:39.329Z,0.35831
2023-01-10T09:36:40.983Z,0.02773
2023-01-10T09:41:42.596Z,0.32338
2023-01-10T09:46:44.261Z,0.25066
2023-01-10T09:51:45.924Z,0.67683
2023-01-10T09:56:47.510Z,0.4593
2023-01-10T10:01:49.226Z,0.7378
2023-01-10T10:06:50.911Z,0.83498
2023-01-10T10:11:52.534Z,0.56092
2023-01-10T10:16:54.139Z,-0.39526
2023-01-10T10:21:55.859Z,-0.47338
2023-01-10T10:26:57.513Z,-0.93829
2023-01-10T10:31:59.210Z,-0.27491
2023-01-10T10:37:00.923Z,0.06711
2023-01-10T10:42:02.511Z,0.57711
2023-01-10T10:47:04.266Z,0.30909
2023-01-10T10:52:05.906Z,0.76892
2023-01-10T10:57:07.533Z,0.95184
2023-01-10T11:02:09.175Z,0.97153
2023-01-10T11:07:10.820Z,0.48312
2023-01-10T11:12:12.472Z,0.71716
2023-01-10T11:17:14.110Z,0.35228
2023-01-10T11:22:15.705Z,0.70319
2023-01-10T11:27:17.354Z,0.67048
2023-01-10T11:32:18.984Z,0.65015
2023-01-10T11:37:20.634Z,-0.25839
2023-01-10T11:42:22.262Z,-0.38923
2023-01-10T11:47:25.195Z,-0.52991
2023-01-10T11:52:26.884Z,0.07759
2023-01-10T11:57:28.551Z,0.73748
2023-01-10T12:02:30.194Z,0.76511
2023-01-10T12:07:31.857Z,0.16714
2023-01-10T12:12:33.476Z,-0.74236
2023-01-10T12:17:35.113Z,0.2243
2023-01-10T12:22:36.840Z,0.83339
2023-01-10T12:27:38.477Z,0.95152
2023-01-10T12:32:40.130Z,1.04108
2023-01-10T12:37:41.804Z,1.06775
2023-01-10T12:42:43.439Z,1.0541
2023-01-10T12:47:45.124Z,0.49963
2023-01-10T12:52:47.087Z,0.46279
2023-01-10T12:57:51.596Z,0.4431
2023-01-10T13:02:53.980Z,-0.34096
2023-01-10T13:07:55.675Z,-0.58358
2023-01-10T13:12:57.359Z,-0.09898
2023-01-10T13:17:59.008Z,-0.31555
2023-01-10T13:23:00.641Z,-0.28253
2023-01-10T13:28:02.290Z,0.49582
2023-01-10T13:33:03.869Z,0.67175
2023-01-10T13:38:05.514Z,0.68159
2023-01-10T13:43:07.094Z,0.22017
2023-01-10T13:48:08.732Z,-0.41749
2023-01-10T13:53:10.357Z,0.00582
2023-01-10T13:58:11.974Z,-0.02308
2023-01-10T14:03:13.804Z,0.67937
2023-01-10T14:08:15.438Z,0.62411
2023-01-10T14:13:17.057Z,0.7775
2023-01-10T14:18:18.904Z,0.98582
2023-01-10T14:23:21.356Z,0.58093
2023-01-10T14:28:23.223Z,0.40245
2023-01-10T14:33:25.005Z,0.29004
2023-01-10T14:38:26.917Z,-0.52229
2023-01-10T14:43:28.687Z,-0.54515
2023-01-10T14:48:30.527Z,-0.84207
2023-01-10T14:53:32.436Z,-0.65757
2023-01-10T14:58:34.312Z,0.38277
2023-01-10T15:03:39.055Z,0.71271
2023-01-10T15:08:40.723Z,0.8245
2023-01-10T15:13:42.625Z,0.87594
2023-01-10T15:18:44.441Z,0.85943
2023-01-10T15:23:46.278Z,0.78385
2023-01-10T15:28:48.111Z,0.51678
2023-01-10T15:33:49.872Z,0.54568
2023-01-10T15:38:51.668Z,-0.18186
2023-01-10T15:43:53.451Z,0.37038
2023-01-10T15:48:55.477Z,0.37356
2023-01-10T15:53:57.281Z,0.85149
2023-01-10T15:58:59.178Z,1.02329
2023-01-10T16:04:01.064Z,1.13222
2023-01-10T16:09:02.964Z,1.06521
2023-01-10T16:14:04.814Z,1.08617
2023-01-10T16:19:06.603Z,0.67461
2023-01-10T16:24:10.752Z,0.89849
2023-01-10T16:29:12.843Z,0.12141
2023-01-10T16:34:14.687Z,-0.01101
2023-01-10T16:39:16.522Z,0.3129
2023-01-10T16:44:19.359Z,0.78226
2023-01-10T16:49:21.808Z,1.07791
2023-01-10T16:54:25.632Z,1.4301
2023-01-10T16:59:27.432Z,1.49552
2023-01-10T17:04:29.261Z,1.34467
2023-01-10T17:09:31.155Z,1.24908
2023-01-10T17:14:32.837Z,1.38881
2023-01-10T17:19:34.673Z,1.43677
2023-01-10T17:24:36.593Z,1.62826
2023-01-10T17:29:38.214Z,1.43613
2023-01-10T17:34:39.871Z,1.59682
2023-01-10T17:39:41.488Z,1.61143
2023-01-10T17:44:43.210Z,1.73083
2023-01-10T17:49:44.783Z,1.91407
2023-01-10T17:54:46.711Z,1.69939
2023-01-10T17:59:48.323Z,2.01696
2023-01-10T18:04:49.954Z,2.10811
2023-01-10T18:09:51.553Z,2.08079
2023-01-10T18:14:53.172Z,2.45172
2023-01-10T18:19:54.749Z,2.44886
2023-01-10T18:24:56.411Z,2.70673
2023-01-10T18:29:58.088Z,2.1243
2023-01-10T18:34:59.937Z,2.34978
2023-01-10T18:40:01.559Z,2.34692
2023-01-10T18:45:03.205Z,2.30055
2023-01-10T18:50:05.054Z,0.37927
2023-01-10T18:55:06.645Z,1.18176
2023-01-10T19:00:08.325Z,1.6724
2023-01-10T19:05:09.953Z,1.00837
2023-01-10T19:10:11.560Z,2.5635
2023-01-10T19:15:13.267Z,2.92458
2023-01-10T19:20:14.891Z,3.17483
2023-01-10T19:25:16.717Z,3.3911
2023-01-10T19:30:18.420Z,3.00302
2023-01-10T19:35:20.272Z,2.84106
2023-01-10T19:40:21.864Z,2.49078
2023-01-10T19:45:24.493Z,3.04653
2023-01-10T19:50:26.194Z,3.21071
2023-01-10T19:55:27.940Z,3.38792
2023-01-10T20:00:29.633Z,3.06336
2023-01-10T20:05:31.307Z,3.47208
2023-01-10T20:10:32.979Z,3.53464
2023-01-10T20:15:34.655Z,3.4111
2023-01-10T20:20:36.444Z,3.64992
2023-01-10T20:25:38.191Z,3.69311
2023-01-10T20:30:39.791Z,3.60419
2023-01-10T20:35:41.414Z,4.15423
2023-01-10T20:40:43.267Z,4.29269
2023-01-10T20:45:45.077Z,4.17074
2023-01-10T20:50:46.820Z,3.57847
2023-01-10T20:55:59.167Z,3.69819
2023-01-10T21:01:01.674Z,3.92303
2023-01-10T21:06:03.317Z,3.86238
2023-01-10T21:11:04.962Z,3.0243
2023-01-10T21:16:06.676Z,3.48637
2023-01-10T21:21:08.357Z,3.67279
2023-01-10T21:26:09.986Z,3.81411
2023-01-10T21:31:11.671Z,3.75535
2023-01-10T21:36:13.349Z,4.13549
2023-01-10T21:41:15.237Z,4.4337
2023-01-10T21:46:17.053Z,4.19679
2023-01-10T21:51:18.849Z,4.36097
2023-01-10T21:56:20.541Z,4.06849
2023-01-10T22:01:22.265Z,3.87222
2023-01-10T22:06:24.016Z,3.18118
2023-01-10T22:11:25.628Z,3.6007
2023-01-10T22:16:27.327Z,3.68327
2023-01-10T22:21:29.102Z,2.73435
2023-01-10T22:26:30.730Z,3.43683
2023-01-10T22:31:32.518Z,3.65373
2023-01-10T22:36:34.393Z,3.90525
2023-01-10T22:41:36.037Z,3.81442
2023-01-10T22:46:37.681Z,3.74392
2023-01-10T22:51:39.316Z,3.71185
2023-01-10T22:56:41.113Z,3.33171
2023-01-10T23:01:42.727Z,3.38665
2023-01-10T23:06:44.462Z,3.34251
2023-01-10T23:11:46.322Z,3.24533
2023-01-10T23:16:48.165Z,3.30313
2023-01-10T23:21:49.854Z,3.16752
2023-01-10T23:26:51.498Z,2.76834
2023-01-10T23:31:53.231Z,2.15606
2023-01-10T23:36:54.849Z,2.06619
2023-01-10T23:41:56.493Z,2.6972
2023-01-10T23:46:58.144Z,2.96174
2023-01-10T23:51:59.917Z,3.18245
2023-01-10T23:57:01.593Z,2.69212
